LIMF/TRN METAR and TAF weather

Enter ICAO airport designator
Station Type Date Time Source
LIMF METAR 2021/02/25 01:50 UTC NOAA

LIMF 250150Z AUTO VRB01KT 9999 NCD 09/02 Q1033


Station Type Date Time Source
LIMF Decoded METAR 2021/02/25 01:50 UTC NOAA

Torino / Caselle, Italy (LIMF) 45-13N 007-39E 287M
Feb 24, 2021 - 08:50 PM EST / 2021.02.25 0150 UTC
Wind: Variable at 1 MPH (1 KT):0
Visibility: greater than 7 mile(s):0
Temperature: 48 F (9 C)
Dew Point: 35 F (2 C)
Relative Humidity: 61%
Pressure (altimeter): 30.50 in. Hg (1033 hPa)
ob: LIMF 250150Z AUTO VRB01KT 9999 NCD 09/02 Q1033
cycle: 2

Station Type Date Time Source
LIMF TAF 2021/02/24 18:23 UTC NOAA

TAF LIMF 241700Z 2418/2518 VRB04KT CAVOK
BECMG 2420/2422 3000 BR PROB40
TEMPO 2502/2507 1200 BCFG BKN004
BECMG 2508/2510 8000

Example: see airport list